Time;durP1;ratioP1;P1;durP2;ratioP2;P2;SDS_P1;SDS_P2;PMS_P1;PMS_P2;Temp;Humidity;BMP_temperature;BMP_pressure;BME280_temperature;BME280_humidity;BME280_pressure;Samples;Min_cycle;Max_cycle;Signal;HPM_P1;HPM_P2
2020/12/31 00:00:47;;;;;;;8.45;5.57;;;4.00;99.90;;;;;;5050769;28;20486;-70
2020/12/31 00:03:13;;;;;;;8.95;5.65;;;3.90;99.90;;;;;;5049749;28;20155;-69
2020/12/31 00:05:40;;;;;;;6.85;5.55;;;3.80;99.90;;;;;;5051578;28;20191;-70
2020/12/31 00:08:07;;;;;;;6.47;4.60;;;3.90;99.90;;;;;;5049452;28;20202;-69
2020/12/31 00:10:34;;;;;;;7.43;5.38;;;3.80;99.90;;;;;;5049548;28;20089;-69
2020/12/31 00:13:00;;;;;;;7.55;5.00;;;3.80;99.90;;;;;;5049640;28;20421;-69
2020/12/31 00:15:27;;;;;;;9.73;5.50;;;3.70;99.90;;;;;;5049726;28;20076;-69
2020/12/31 00:17:54;;;;;;;8.68;5.18;;;3.60;99.90;;;;;;5051128;28;20087;-69
2020/12/31 00:20:21;;;;;;;8.07;5.25;;;3.70;99.90;;;;;;5047995;28;20063;-70
2020/12/31 00:22:47;;;;;;;6.57;4.72;;;3.70;99.90;;;;;;5049008;28;20081;-69
2020/12/31 00:25:14;;;;;;;9.38;5.47;;;3.80;99.90;;;;;;5050768;28;20045;-69
2020/12/31 00:27:44;;;;;;;7.78;5.93;;;3.80;99.90;;;;;;5049424;28;20503;-69
2020/12/31 00:30:16;;;;;;;;;;;3.90;99.90;;;;;;5050472;28;20547;-69
2020/12/31 00:32:44;;;;;;;8.43;4.95;;;3.80;99.90;;;;;;5049635;28;20419;-69
2020/12/31 00:35:11;;;;;;;8.15;4.97;;;4.00;99.90;;;;;;5048803;28;20447;-69
2020/12/31 00:37:38;;;;;;;9.90;5.68;;;4.00;99.90;;;;;;5050183;28;20092;-69
2020/12/31 00:40:06;;;;;;;8.13;5.22;;;3.90;99.90;;;;;;5049235;28;20469;-69
2020/12/31 00:42:32;;;;;;;8.77;5.78;;;3.80;99.90;;;;;;5050284;28;20174;-69
2020/12/31 00:44:59;;;;;;;6.45;4.70;;;3.90;99.90;;;;;;5050310;28;20134;-69
2020/12/31 00:47:26;;;;;;;7.53;4.88;;;4.00;99.90;;;;;;5048280;28;20624;-69
2020/12/31 00:49:53;;;;;;;6.85;4.60;;;3.90;99.90;;;;;;5048547;28;20073;-70
2020/12/31 00:52:19;;;;;;;6.35;4.50;;;3.90;99.90;;;;;;5049317;28;20115;-69
2020/12/31 00:54:48;;;;;;;6.95;5.25;;;3.90;99.90;;;;;;5048821;28;20049;-69
2020/12/31 00:57:15;;;;;;;7.00;4.78;;;3.90;99.90;;;;;;5048918;28;20127;-70
2020/12/31 00:59:41;;;;;;;8.00;5.30;;;3.80;99.90;;;;;;5049409;28;20095;-69
2020/12/31 01:02:09;;;;;;;6.97;5.10;;;3.80;99.90;;;;;;5051449;28;20122;-69
2020/12/31 01:04:36;;;;;;;7.65;5.38;;;4.00;99.90;;;;;;5049703;28;20136;-69
2020/12/31 01:07:02;;;;;;;7.15;4.95;;;3.80;99.90;;;;;;5048092;28;20417;-69
2020/12/31 01:09:30;;;;;;;8.13;4.88;;;3.90;99.90;;;;;;5050013;28;20056;-69
2020/12/31 01:11:57;;;;;;;5.82;3.72;;;3.90;99.90;;;;;;5049251;28;20060;-69
2020/12/31 01:14:23;;;;;;;6.40;4.40;;;3.90;99.90;;;;;;5049396;28;20095;-69
2020/12/31 01:16:50;;;;;;;8.52;5.53;;;3.80;99.90;;;;;;5049701;28;21676;-70
2020/12/31 01:19:18;;;;;;;5.93;4.13;;;3.90;99.90;;;;;;5048562;28;20099;-69
2020/12/31 01:21:45;;;;;;;8.73;5.40;;;3.90;99.90;;;;;;5047176;28;20135;-69
2020/12/31 01:24:12;;;;;;;6.57;4.68;;;4.00;99.90;;;;;;5049962;28;20067;-69
2020/12/31 01:26:41;;;;;;;6.68;4.93;;;3.90;99.90;;;;;;5048023;28;20147;-69
2020/12/31 01:29:07;;;;;;;6.93;5.03;;;4.00;99.90;;;;;;5047929;28;20049;-69
2020/12/31 01:31:34;;;;;;;6.85;4.90;;;4.00;99.90;;;;;;5049784;28;20087;-70
2020/12/31 01:34:00;;;;;;;6.35;4.53;;;4.10;99.90;;;;;;5048281;28;20040;-69
2020/12/31 01:36:28;;;;;;;7.97;5.25;;;4.00;99.90;;;;;;5048539;28;20428;-69
2020/12/31 01:38:54;;;;;;;7.80;5.50;;;4.00;99.90;;;;;;5048118;28;20048;-69
2020/12/31 01:41:24;;;;;;;7.80;5.40;;;4.00;99.90;;;;;;5048323;28;20048;-69
2020/12/31 01:44:05;;;;;;;8.77;5.97;;;4.00;99.90;;;;;;5050209;28;20809;-69
2020/12/31 01:46:33;;;;;;;7.57;5.28;;;4.00;99.90;;;;;;5049629;28;20056;-69
2020/12/31 01:49:01;;;;;;;8.75;5.30;;;4.00;99.90;;;;;;5046997;28;20068;-69
2020/12/31 01:51:29;;;;;;;7.55;5.63;;;4.10;99.90;;;;;;5048441;28;20072;-69
2020/12/31 01:53:57;;;;;;;9.02;5.75;;;4.10;99.90;;;;;;5048369;28;20461;-69
2020/12/31 01:56:27;;;;;;;8.35;5.53;;;4.00;99.90;;;;;;5047765;28;20088;-69
2020/12/31 01:58:54;;;;;;;8.65;5.80;;;3.90;99.90;;;;;;5046312;28;20417;-69
2020/12/31 02:01:25;;;;;;;6.75;4.38;;;3.70;99.90;;;;;;5052877;28;20123;-69
2020/12/31 02:03:53;;;;;;;10.15;6.28;;;3.80;99.90;;;;;;5049213;28;20083;-69
2020/12/31 02:06:22;;;;;;;10.23;6.80;;;3.90;99.90;;;;;;5048565;28;20573;-69
2020/12/31 02:08:50;;;;;;;9.15;6.85;;;3.70;99.90;;;;;;5047606;28;20535;-69
2020/12/31 02:11:18;;;;;;;9.85;6.68;;;3.90;99.90;;;;;;5047871;28;21637;-69
2020/12/31 02:13:46;;;;;;;8.82;5.65;;;3.80;99.90;;;;;;5047401;28;20148;-69
2020/12/31 02:16:14;;;;;;;8.77;6.50;;;3.70;99.90;;;;;;5047021;28;20139;-69
2020/12/31 02:18:54;;;;;;;9.15;6.50;;;3.60;99.90;;;;;;5047633;28;20091;-69
2020/12/31 02:21:24;;;;;;;8.07;6.03;;;3.60;99.90;;;;;;5046964;28;20128;-69
2020/12/31 02:23:52;;;;;;;11.07;6.90;;;3.60;99.90;;;;;;5050897;28;20060;-69
2020/12/31 02:26:20;;;;;;;8.90;6.22;;;3.70;99.90;;;;;;5047859;28;20083;-69
2020/12/31 02:28:50;;;;;;;8.73;6.25;;;3.70;99.90;;;;;;5048448;28;20084;-69
2020/12/31 02:31:16;;;;;;;8.73;5.90;;;3.70;99.90;;;;;;5046483;28;20061;-69
2020/12/31 02:33:44;;;;;;;10.40;6.28;;;3.70;99.90;;;;;;5047093;28;20053;-69
2020/12/31 02:36:12;;;;;;;8.88;6.25;;;3.80;99.90;;;;;;5046361;28;20052;-69
2020/12/31 02:38:39;;;;;;;9.48;6.78;;;3.70;99.90;;;;;;5049808;28;20080;-69
2020/12/31 02:41:09;;;;;;;9.68;6.55;;;3.70;99.90;;;;;;5048081;28;20460;-69
2020/12/31 02:43:37;;;;;;;10.35;6.68;;;3.80;99.90;;;;;;5048399;28;20095;-69
2020/12/31 02:46:04;;;;;;;10.50;7.03;;;3.90;99.90;;;;;;5045921;28;20045;-69
2020/12/31 02:48:30;;;;;;;10.35;6.47;;;3.70;99.90;;;;;;5047781;28;20485;-69
2020/12/31 02:50:57;;;;;;;8.63;5.65;;;3.90;99.90;;;;;;5047115;28;20462;-69
2020/12/31 02:53:24;;;;;;;10.02;6.28;;;3.80;99.90;;;;;;5047805;28;20077;-69
2020/12/31 02:55:50;;;;;;;7.63;6.00;;;3.80;99.90;;;;;;5052199;28;20478;-69
2020/12/31 02:58:18;;;;;;;7.78;4.90;;;3.80;99.90;;;;;;5052023;28;20048;-69
2020/12/31 03:00:44;;;;;;;7.70;4.78;;;3.80;99.90;;;;;;5046086;28;20131;-69
2020/12/31 03:03:11;;;;;;;8.55;5.88;;;3.70;99.90;;;;;;5050463;28;20052;-69
2020/12/31 03:05:37;;;;;;;8.40;5.40;;;3.60;99.90;;;;;;5047785;28;20143;-69
2020/12/31 03:08:04;;;;;;;7.50;5.43;;;3.60;99.90;;;;;;5046954;28;20571;-69
2020/12/31 03:10:31;;;;;;;6.82;4.50;;;3.80;99.90;;;;;;5049133;28;20060;-69
2020/12/31 03:12:58;;;;;;;8.52;5.78;;;3.90;99.90;;;;;;5051143;28;21196;-69
2020/12/31 03:15:26;;;;;;;7.68;5.13;;;3.70;99.90;;;;;;5050603;28;20474;-69
2020/12/31 03:17:53;;;;;;;8.82;6.70;;;3.70;99.90;;;;;;5052622;28;20067;-69
2020/12/31 03:20:19;;;;;;;8.70;5.95;;;3.80;99.90;;;;;;5052914;28;20080;-69
2020/12/31 03:22:46;;;;;;;8.10;5.30;;;3.80;99.90;;;;;;5052837;28;20049;-69
2020/12/31 03:25:15;;;;;;;8.82;6.50;;;3.80;99.90;;;;;;5050762;28;20537;-69
2020/12/31 03:27:41;;;;;;;8.35;5.95;;;3.80;99.90;;;;;;5051418;28;20060;-69
2020/12/31 03:30:08;;;;;;;10.88;6.80;;;3.80;99.90;;;;;;5050557;28;20740;-69
2020/12/31 03:32:37;;;;;;;9.02;5.70;;;3.90;99.90;;;;;;5050872;28;20143;-69
2020/12/31 03:35:04;;;;;;;7.97;5.72;;;3.80;99.90;;;;;;5050607;28;20167;-69
2020/12/31 03:37:31;;;;;;;8.05;5.88;;;3.80;99.90;;;;;;5050885;28;20048;-69
2020/12/31 03:39:57;;;;;;;8.93;6.30;;;3.80;99.90;;;;;;5049850;28;20048;-69
2020/12/31 03:42:24;;;;;;;9.20;6.75;;;3.90;99.90;;;;;;5052873;28;20131;-69
2020/12/31 03:44:50;;;;;;;11.65;6.97;;;3.70;99.90;;;;;;5050459;28;20077;-69
2020/12/31 03:47:17;;;;;;;8.82;6.43;;;3.80;99.90;;;;;;5050836;28;20085;-69
2020/12/31 03:49:44;;;;;;;11.88;6.60;;;3.90;99.90;;;;;;5050410;28;20140;-69
2020/12/31 03:52:11;;;;;;;8.80;6.93;;;3.90;99.90;;;;;;5049457;28;20140;-70
2020/12/31 03:54:37;;;;;;;8.82;6.22;;;4.00;99.90;;;;;;5050400;28;20516;-69
2020/12/31 03:57:04;;;;;;;10.57;6.18;;;3.90;99.90;;;;;;5050173;28;20053;-69
2020/12/31 03:59:30;;;;;;;8.85;6.57;;;3.80;99.90;;;;;;5050207;28;20041;-69
2020/12/31 04:01:57;;;;;;;8.13;6.32;;;3.90;99.90;;;;;;5050568;28;20057;-69
2020/12/31 04:04:23;;;;;;;8.07;6.10;;;3.90;99.90;;;;;;5048450;28;20077;-69
2020/12/31 04:06:51;;;;;;;8.15;5.38;;;3.90;99.90;;;;;;5051831;28;20526;-69
2020/12/31 04:09:18;;;;;;;10.32;6.65;;;3.90;99.90;;;;;;5049445;28;20060;-69
2020/12/31 04:11:44;;;;;;;9.48;6.32;;;3.90;99.90;;;;;;5051127;28;20176;-69
2020/12/31 04:14:11;;;;;;;8.82;5.65;;;3.90;99.90;;;;;;5049457;28;20076;-69
2020/12/31 04:16:37;;;;;;;9.32;5.75;;;3.80;99.90;;;;;;5049979;28;20060;-69
2020/12/31 04:19:04;;;;;;;7.20;5.65;;;3.80;99.90;;;;;;5050882;28;20053;-69
2020/12/31 04:21:30;;;;;;;8.38;5.57;;;3.80;99.90;;;;;;5050499;28;20144;-69
2020/12/31 04:23:58;;;;;;;8.35;5.68;;;3.80;99.90;;;;;;5049854;28;20091;-69
2020/12/31 04:26:24;;;;;;;8.45;5.88;;;3.70;99.90;;;;;;5049817;28;20045;-69
2020/12/31 04:28:51;;;;;;;7.38;5.15;;;3.90;99.90;;;;;;5049233;28;20045;-69
2020/12/31 04:31:17;;;;;;;7.97;5.15;;;3.80;99.90;;;;;;5050206;28;20088;-69
2020/12/31 04:33:44;;;;;;;7.47;5.15;;;3.90;99.90;;;;;;5048572;28;20072;-69
2020/12/31 04:36:10;;;;;;;6.43;4.55;;;4.00;99.90;;;;;;5050589;28;20049;-70
2020/12/31 04:38:37;;;;;;;6.75;4.88;;;4.00;99.90;;;;;;5049184;28;20052;-69
2020/12/31 04:41:04;;;;;;;6.78;4.18;;;3.80;99.90;;;;;;5049399;28;20076;-69
2020/12/31 04:43:32;;;;;;;6.30;4.80;;;3.70;99.90;;;;;;5050426;28;20053;-69
2020/12/31 04:46:01;;;;;;;6.60;5.00;;;3.90;99.90;;;;;;5049557;28;20084;-69
2020/12/31 04:48:39;;;;;;;6.63;4.97;;;3.90;99.90;;;;;;5050806;28;21278;-69
2020/12/31 04:51:07;;;;;;;7.35;4.75;;;3.90;99.90;;;;;;5048848;28;20430;-69
2020/12/31 04:53:34;;;;;;;7.07;5.10;;;4.10;99.90;;;;;;5048818;28;20080;-69
2020/12/31 04:56:02;;;;;;;6.65;4.63;;;4.00;99.90;;;;;;5049507;28;20041;-69
2020/12/31 04:58:30;;;;;;;6.70;4.72;;;4.00;99.90;;;;;;5049320;28;20068;-69
2020/12/31 05:00:57;;;;;;;7.68;4.72;;;3.80;99.90;;;;;;5048933;28;20084;-69
2020/12/31 05:03:24;;;;;;;6.35;4.18;;;3.80;99.90;;;;;;5048899;28;20044;-69
2020/12/31 05:05:54;;;;;;;5.95;4.55;;;4.00;99.90;;;;;;5051265;28;20052;-69
2020/12/31 05:08:25;;;;;;;;;;;4.00;99.90;;;;;;5048962;28;20059;-69
2020/12/31 05:10:55;;;;;;;7.07;4.45;;;3.90;99.90;;;;;;5052154;28;19920;-69
2020/12/31 05:13:24;;;;;;;7.07;4.93;;;3.80;99.90;;;;;;5048594;28;20143;-69
2020/12/31 05:15:52;;;;;;;5.88;4.32;;;3.90;99.90;;;;;;5048439;28;20044;-69
2020/12/31 05:18:20;;;;;;;6.10;4.53;;;3.60;99.90;;;;;;5046962;28;20063;-69
2020/12/31 05:20:48;;;;;;;5.97;4.55;;;3.70;99.90;;;;;;5049145;28;20449;-69
2020/12/31 05:23:17;;;;;;;6.22;4.70;;;3.80;99.90;;;;;;5047819;28;20049;-69
2020/12/31 05:25:43;;;;;;;6.30;4.60;;;3.90;99.90;;;;;;5050099;28;20071;-69
2020/12/31 05:28:27;;;;;;;6.68;4.80;;;3.80;99.90;;;;;;5048151;28;20859;-69
2020/12/31 05:30:57;;;;;;;6.30;4.60;;;3.70;99.90;;;;;;5049311;28;20084;-69
2020/12/31 05:33:28;;;;;;;5.10;4.05;;;3.70;99.90;;;;;;5048128;28;20428;-69
2020/12/31 05:36:15;;;;;;;5.68;4.40;;;3.80;99.90;;;;;;5049457;28;20049;-69
2020/12/31 05:38:43;;;;;;;6.22;4.15;;;3.90;99.90;;;;;;5049079;28;20054;-69
2020/12/31 05:41:10;;;;;;;5.25;4.05;;;3.90;99.90;;;;;;5048084;28;20494;-69
2020/12/31 05:43:39;;;;;;;5.13;4.10;;;3.90;99.90;;;;;;5049303;28;20083;-69
2020/12/31 05:46:08;;;;;;;6.45;4.80;;;3.80;99.90;;;;;;5047705;28;20048;-69
2020/12/31 05:48:34;;;;;;;3.95;3.20;;;3.90;99.90;;;;;;5049359;28;20059;-69
2020/12/31 05:51:20;;;;;;;5.40;3.83;;;3.80;99.90;;;;;;5049209;28;20073;-69
2020/12/31 05:53:48;;;;;;;5.53;4.40;;;3.80;99.90;;;;;;5049005;28;20053;-69
2020/12/31 05:56:17;;;;;;;5.43;3.92;;;3.90;99.90;;;;;;5051050;28;20686;-69
2020/12/31 05:58:48;;;;;;;4.82;3.65;;;3.90;99.90;;;;;;5053243;28;20140;-69
2020/12/31 06:01:17;;;;;;;5.68;4.30;;;3.80;99.90;;;;;;5049202;28;20090;-69
2020/12/31 06:03:52;;;;;;;5.57;3.50;;;4.10;99.90;;;;;;5048013;28;20053;-69
2020/12/31 06:06:20;;;;;;;5.43;4.03;;;3.80;99.90;;;;;;5047904;28;20094;-69
2020/12/31 06:08:58;;;;;;;4.78;3.10;;;4.00;99.90;;;;;;5048849;28;20477;-69
2020/12/31 06:11:37;;;;;;;3.90;2.70;;;3.90;99.90;;;;;;5049346;28;20049;-69
2020/12/31 06:14:05;;;;;;;4.40;3.08;;;3.90;99.90;;;;;;5048133;28;20076;-69
2020/12/31 06:16:39;;;;;;;5.43;3.85;;;4.00;99.90;;;;;;5047202;28;20529;-69
2020/12/31 06:19:32;;;;;;;4.57;3.38;;;3.90;99.90;;;;;;5047271;28;20049;-69
2020/12/31 06:22:04;;;;;;;4.65;3.45;;;3.90;99.90;;;;;;5023785;28;20604;-69
2020/12/31 06:24:36;;;;;;;5.47;3.55;;;4.10;99.90;;;;;;5048467;28;20060;-69
2020/12/31 06:27:10;;;;;;;4.18;3.00;;;4.20;99.90;;;;;;5049262;28;20041;-69
2020/12/31 06:29:44;;;;;;;3.60;3.00;;;4.10;99.90;;;;;;5048491;28;20139;-69
2020/12/31 06:32:17;;;;;;;3.83;2.95;;;4.20;99.90;;;;;;5047611;28;20150;-69
2020/12/31 06:34:44;;;;;;;4.45;3.03;;;4.10;99.90;;;;;;5047155;28;20477;-69
2020/12/31 06:37:11;;;;;;;4.05;2.95;;;4.00;99.90;;;;;;5046669;28;20128;-69
2020/12/31 06:39:39;;;;;;;3.55;2.47;;;3.90;99.90;;;;;;5047138;28;20127;-69
2020/12/31 06:42:06;;;;;;;4.00;2.80;;;4.00;99.90;;;;;;5047371;28;20068;-69
2020/12/31 06:44:33;;;;;;;4.05;2.45;;;3.90;99.90;;;;;;5051357;28;20106;-69
2020/12/31 06:47:00;;;;;;;4.22;3.10;;;3.90;99.90;;;;;;5050590;28;20401;-69
2020/12/31 06:49:54;;;;;;;3.03;2.40;;;4.10;99.90;;;;;;5051999;28;20090;-69
2020/12/31 06:52:22;;;;;;;4.00;2.75;;;4.00;99.90;;;;;;5052063;28;20049;-69
2020/12/31 06:54:49;;;;;;;3.30;2.42;;;4.10;99.90;;;;;;5050761;28;20044;-69
2020/12/31 06:57:37;;;;;;;3.90;2.80;;;4.10;99.90;;;;;;5051804;28;20518;-69
2020/12/31 07:00:05;;;;;;;3.45;2.17;;;4.00;99.90;;;;;;5051903;28;20646;-69
2020/12/31 07:02:44;;;;;;;2.97;2.28;;;4.10;99.90;;;;;;5052680;28;20149;-69
2020/12/31 07:05:22;;;;;;;3.27;2.03;;;4.00;99.90;;;;;;5050204;28;20102;-69
2020/12/31 07:07:49;;;;;;;3.15;2.30;;;4.00;99.90;;;;;;5050724;28;20059;-69
2020/12/31 07:10:16;;;;;;;2.72;1.80;;;3.80;99.90;;;;;;5051137;28;20448;-69
2020/12/31 07:12:45;;;;;;;3.53;2.30;;;3.80;99.90;;;;;;5050494;28;20091;-69
2020/12/31 07:15:14;;;;;;;3.42;2.30;;;3.80;99.90;;;;;;5050481;28;20055;-69
2020/12/31 07:17:42;;;;;;;2.72;2.03;;;3.90;99.90;;;;;;5052405;28;20059;-69
2020/12/31 07:20:10;;;;;;;2.95;2.00;;;4.00;99.90;;;;;;5050348;28;20073;-69
2020/12/31 07:22:38;;;;;;;2.72;2.00;;;4.00;99.90;;;;;;5052198;28;20060;-69
2020/12/31 07:25:07;;;;;;;2.72;2.00;;;3.90;99.90;;;;;;5052308;28;20048;-69
2020/12/31 07:27:36;;;;;;;2.80;2.00;;;3.80;99.90;;;;;;5050743;28;20136;-69
2020/12/31 07:30:11;;;;;;;3.00;1.83;;;3.80;99.90;;;;;;5050282;28;20045;-69
2020/12/31 07:32:56;;;;;;;2.97;2.00;;;3.70;99.90;;;;;;5050867;28;20045;-69
2020/12/31 07:35:33;;;;;;;2.83;1.73;;;3.80;99.90;;;;;;5049765;28;20512;-68
2020/12/31 07:38:02;;;;;;;2.58;1.90;;;3.60;99.90;;;;;;5050079;28;20091;-69
2020/12/31 07:40:34;;;;;;;2.72;1.83;;;3.50;99.90;;;;;;5052696;28;20533;-69
2020/12/31 07:43:00;;;;;;;2.47;1.90;;;3.50;99.90;;;;;;5051255;28;20056;-68
2020/12/31 07:45:28;;;;;;;4.90;1.75;;;3.70;99.90;;;;;;5052916;28;20472;-68
2020/12/31 07:47:55;;;;;;;2.95;1.95;;;3.60;99.90;;;;;;5050343;28;20045;-68
2020/12/31 07:50:22;;;;;;;2.80;1.92;;;3.80;99.90;;;;;;5050433;28;20603;-68
2020/12/31 07:52:50;;;;;;;2.25;1.60;;;3.90;99.90;;;;;;5050427;28;20080;-68
2020/12/31 07:55:20;;;;;;;2.58;1.65;;;3.70;99.90;;;;;;5049328;28;20087;-68
2020/12/31 07:57:47;;;;;;;;;;;3.70;99.90;;;;;;5050558;28;20063;-69
2020/12/31 08:00:15;;;;;;;3.03;1.92;;;3.70;99.90;;;;;;5051627;28;20349;-68
2020/12/31 08:02:46;;;;;;;2.60;1.52;;;3.70;99.90;;;;;;5049612;28;20451;-68
2020/12/31 08:05:14;;;;;;;2.90;1.75;;;3.90;99.90;;;;;;5050448;28;20103;-68
2020/12/31 08:07:41;;;;;;;2.47;1.15;;;3.80;99.90;;;;;;5050819;28;20501;-69
2020/12/31 08:10:09;;;;;;;2.40;1.60;;;3.90;99.90;;;;;;5049073;28;20058;-67
2020/12/31 08:12:39;;;;;;;2.00;1.45;;;4.00;99.90;;;;;;5050169;28;20041;-67
2020/12/31 08:15:07;;;;;;;2.03;1.42;;;3.90;99.90;;;;;;5049790;28;20044;-67
2020/12/31 08:17:34;;;;;;;2.28;1.60;;;3.90;99.90;;;;;;5051014;28;20553;-67
2020/12/31 08:20:03;;;;;;;2.20;1.60;;;4.10;99.90;;;;;;5054366;28;20083;-67
2020/12/31 08:22:33;;;;;;;1.88;1.40;;;3.90;99.90;;;;;;5049645;28;20099;-67
2020/12/31 08:25:04;;;;;;;2.13;1.65;;;4.00;99.90;;;;;;5051348;28;20401;-68
2020/12/31 08:27:37;;;;;;;2.20;1.48;;;4.20;99.90;;;;;;5049699;28;20079;-67
2020/12/31 08:30:06;;;;;;;1.90;1.40;;;4.30;99.90;;;;;;5049405;28;20060;-68
2020/12/31 08:32:49;;;;;;;2.43;1.70;;;4.40;99.90;;;;;;5050146;28;20049;-68
2020/12/31 08:35:21;;;;;;;1.95;1.30;;;4.40;99.90;;;;;;5050558;28;21235;-68
2020/12/31 08:37:58;;;;;;;2.20;1.70;;;4.40;99.90;;;;;;5050736;28;20135;-68
2020/12/31 08:40:24;;;;;;;1.83;1.23;;;4.30;99.90;;;;;;5049436;28;20045;-68
2020/12/31 08:42:53;;;;;;;2.00;1.73;;;4.30;99.90;;;;;;5051254;28;20162;-68
2020/12/31 08:45:31;;;;;;;2.97;1.80;;;4.20;99.90;;;;;;5048642;28;20539;-68
2020/12/31 08:48:18;;;;;;;2.78;2.03;;;4.20;99.90;;;;;;5049678;28;20474;-68
2020/12/31 08:50:59;;;;;;;2.78;2.08;;;4.20;99.90;;;;;;5050461;28;20167;-68
2020/12/31 08:53:26;;;;;;;3.95;2.72;;;4.30;99.90;;;;;;5048453;28;20135;-68
2020/12/31 08:55:55;;;;;;;2.40;1.90;;;4.20;99.90;;;;;;5050642;28;20087;-68
2020/12/31 08:58:28;;;;;;;3.20;2.13;;;4.10;99.90;;;;;;5053349;28;20048;-68
2020/12/31 09:00:55;;;;;;;2.33;1.80;;;4.20;99.90;;;;;;5053512;28;20547;-68
2020/12/31 09:03:23;;;;;;;2.47;1.73;;;4.20;99.90;;;;;;5049221;28;20079;-68
2020/12/31 09:05:57;;;;;;;2.28;1.65;;;4.20;99.90;;;;;;5049875;28;20131;-68
2020/12/31 09:08:24;;;;;;;2.92;2.20;;;4.20;99.90;;;;;;5048059;28;20049;-68
2020/12/31 09:11:00;;;;;;;4.10;2.72;;;4.30;99.90;;;;;;5046552;28;20483;-69
2020/12/31 09:13:27;;;;;;;2.55;1.88;;;4.40;99.90;;;;;;5045499;28;20076;-43
2020/12/31 09:16:11;;;;;;;2.92;2.10;;;4.50;99.90;;;;;;5048932;28;20459;-67
2020/12/31 09:18:38;;;;;;;7.00;4.97;;;4.70;99.90;;;;;;5051146;28;20424;-67
2020/12/31 09:21:05;;;;;;;2.80;1.80;;;4.80;99.90;;;;;;5050096;28;20111;-67
2020/12/31 09:23:31;;;;;;;2.22;1.75;;;4.60;99.90;;;;;;5048739;28;20053;-67
2020/12/31 09:25:58;;;;;;;2.10;1.52;;;4.70;99.90;;;;;;5049172;28;20081;-67
2020/12/31 09:28:25;;;;;;;2.67;1.70;;;4.60;99.90;;;;;;5048120;28;20160;-67
2020/12/31 09:30:54;;;;;;;3.10;1.77;;;4.80;99.90;;;;;;5047551;28;20470;-67
2020/12/31 09:33:22;;;;;;;6.97;4.85;;;4.80;99.90;;;;;;5048282;28;20451;-67
2020/12/31 09:35:48;;;;;;;3.47;1.90;;;4.90;99.90;;;;;;5049197;28;20083;-67
2020/12/31 09:38:18;;;;;;;2.78;2.30;;;4.90;99.90;;;;;;5049046;28;20059;-67
2020/12/31 09:40:45;;;;;;;2.20;1.50;;;4.80;99.90;;;;;;5049105;28;20048;-67
2020/12/31 09:43:12;;;;;;;2.17;1.50;;;4.70;99.90;;;;;;5048462;28;20137;-67
2020/12/31 09:45:38;;;;;;;2.17;1.55;;;4.60;99.90;;;;;;5048652;28;20064;-67
2020/12/31 09:48:06;;;;;;;2.65;1.80;;;4.60;99.90;;;;;;5049369;28;20087;-67
2020/12/31 09:50:34;;;;;;;2.85;1.90;;;4.80;99.90;;;;;;5047940;28;20045;-67
2020/12/31 09:53:01;;;;;;;2.20;1.60;;;4.60;99.90;;;;;;5040071;28;79201;-67
2020/12/31 09:55:27;;;;;;;2.03;1.65;;;4.50;99.90;;;;;;5047596;28;20055;-67
2020/12/31 09:57:54;;;;;;;2.75;2.17;;;4.80;99.90;;;;;;5048063;28;20523;-67
2020/12/31 10:00:21;;;;;;;2.63;1.70;;;5.00;99.90;;;;;;5046584;28;20080;-67
2020/12/31 10:02:48;;;;;;;3.05;2.03;;;5.20;99.90;;;;;;5047638;28;20063;-67
2020/12/31 10:05:15;;;;;;;2.92;1.60;;;5.10;99.90;;;;;;5047865;28;20580;-67
2020/12/31 10:07:42;;;;;;;2.55;1.90;;;4.90;99.90;;;;;;5048075;28;20049;-67
2020/12/31 10:10:09;;;;;;;2.88;1.90;;;5.20;99.90;;;;;;5050610;28;20501;-67
2020/12/31 10:12:38;;;;;;;3.15;1.52;;;5.20;99.90;;;;;;5049431;28;20401;-67
2020/12/31 10:15:05;;;;;;;2.80;1.80;;;5.20;99.90;;;;;;5046746;28;20049;-67
2020/12/31 10:17:31;;;;;;;2.70;1.58;;;5.20;99.90;;;;;;5046802;28;20076;-67
2020/12/31 10:19:58;;;;;;;2.60;1.70;;;5.10;99.90;;;;;;5047896;28;20140;-67
2020/12/31 10:22:25;;;;;;;2.35;1.70;;;5.20;99.90;;;;;;5048813;28;20135;-68
2020/12/31 10:24:52;;;;;;;2.63;1.58;;;5.30;99.90;;;;;;5045280;28;20049;-68
2020/12/31 10:27:18;;;;;;;2.70;1.77;;;5.20;99.90;;;;;;5047617;28;20048;-68
2020/12/31 10:29:45;;;;;;;2.30;1.50;;;5.40;99.90;;;;;;5047014;28;20123;-68
2020/12/31 10:32:12;;;;;;;2.20;1.40;;;5.40;99.90;;;;;;5047014;28;20053;-68
2020/12/31 10:34:39;;;;;;;2.30;1.50;;;5.40;99.90;;;;;;5047510;28;20045;-68
2020/12/31 10:37:05;;;;;;;2.08;1.50;;;5.30;99.90;;;;;;5046816;28;20493;-68
2020/12/31 10:39:35;;;;;;;2.13;1.60;;;5.30;99.90;;;;;;5048052;28;20084;-68
2020/12/31 10:42:02;;;;;;;3.38;1.77;;;5.30;99.90;;;;;;5048071;28;20053;-68
2020/12/31 10:44:29;;;;;;;2.42;1.45;;;5.30;99.90;;;;;;5049558;28;20140;-68
2020/12/31 10:46:55;;;;;;;2.30;1.48;;;5.10;99.90;;;;;;5049561;28;20049;-68
2020/12/31 10:49:23;;;;;;;2.22;1.73;;;4.80;99.90;;;;;;5047977;28;20604;-68
2020/12/31 10:51:50;;;;;;;1.95;1.40;;;4.90;99.90;;;;;;5046512;28;20139;-68
2020/12/31 10:54:17;;;;;;;2.13;1.65;;;5.00;99.90;;;;;;5045930;28;20056;-68
2020/12/31 10:56:48;;;;;;;2.83;1.35;;;4.80;99.90;;;;;;5046754;28;20056;-68
2020/12/31 10:59:14;;;;;;;2.60;1.60;;;4.60;99.90;;;;;;5046758;28;20057;-68
2020/12/31 11:01:41;;;;;;;1.83;1.30;;;4.70;99.90;;;;;;5046601;28;20143;-68
2020/12/31 11:04:08;;;;;;;2.00;1.40;;;4.70;99.90;;;;;;5046241;28;20052;-68
2020/12/31 11:06:34;;;;;;;3.55;1.80;;;4.70;99.90;;;;;;5046514;28;20051;-68
2020/12/31 11:09:01;;;;;;;2.05;1.33;;;4.60;99.90;;;;;;5046862;28;20159;-68
2020/12/31 11:11:30;;;;;;;2.58;1.40;;;4.60;99.90;;;;;;5045537;28;20497;-67
2020/12/31 11:13:57;;;;;;;1.88;1.17;;;4.60;99.90;;;;;;5046426;28;21602;-68
2020/12/31 11:16:24;;;;;;;1.75;1.10;;;4.50;99.90;;;;;;5046898;28;20081;-68
2020/12/31 11:18:53;;;;;;;1.90;1.20;;;4.40;99.90;;;;;;5047352;28;20076;-67
2020/12/31 11:21:20;;;;;;;2.08;1.38;;;4.30;99.90;;;;;;5047009;28;20049;-68
2020/12/31 11:23:47;;;;;;;1.88;1.20;;;4.50;99.90;;;;;;5046938;28;20458;-68
2020/12/31 11:26:15;;;;;;;1.65;1.10;;;4.60;99.90;;;;;;5048012;28;20351;-68
2020/12/31 11:28:42;;;;;;;1.90;1.20;;;4.60;99.90;;;;;;5048853;28;20040;-67
2020/12/31 11:31:12;;;;;;;2.13;1.30;;;4.50;99.90;;;;;;5047825;28;20098;-67
2020/12/31 11:33:38;;;;;;;1.85;1.20;;;4.60;99.90;;;;;;5049565;28;20048;-68
2020/12/31 11:36:05;;;;;;;2.13;1.20;;;4.70;99.90;;;;;;5049532;28;20057;-68
2020/12/31 11:38:32;;;;;;;1.60;1.10;;;4.90;99.90;;;;;;5050559;28;20080;-68
2020/12/31 11:40:59;;;;;;;1.50;1.10;;;4.90;99.90;;;;;;5048721;28;20379;-67
2020/12/31 11:43:25;;;;;;;1.88;1.10;;;4.90;99.90;;;;;;5054086;28;20061;-68
2020/12/31 11:45:54;;;;;;;1.70;1.23;;;5.10;99.90;;;;;;5051840;28;20060;-67
2020/12/31 11:48:22;;;;;;;1.63;1.20;;;5.00;99.90;;;;;;5048845;28;20402;-67
2020/12/31 11:50:51;;;;;;;1.65;1.10;;;5.20;99.90;;;;;;5050109;28;20458;-68
2020/12/31 11:53:18;;;;;;;1.75;1.20;;;5.00;99.90;;;;;;5050716;28;20057;-67
2020/12/31 11:55:44;;;;;;;1.80;1.30;;;5.00;99.90;;;;;;5050706;28;20044;-68
2020/12/31 11:58:11;;;;;;;2.05;1.20;;;5.00;99.90;;;;;;5053147;28;20060;-68
2020/12/31 12:00:38;;;;;;;1.50;1.13;;;5.00;99.90;;;;;;5055790;28;20056;-68
2020/12/31 12:03:05;;;;;;;2.47;1.20;;;4.90;99.90;;;;;;5052230;28;20045;-68
2020/12/31 12:05:35;;;;;;;3.05;1.70;;;4.80;99.90;;;;;;5051151;28;20059;-68
2020/12/31 12:08:01;;;;;;;;;;;5.00;99.90;;;;;;5048728;28;20131;-68
2020/12/31 12:10:30;;;;;;;2.53;1.20;;;5.00;99.90;;;;;;5050533;28;19943;-68
2020/12/31 12:12:56;;;;;;;2.13;1.40;;;4.70;99.90;;;;;;5049617;28;20044;-68
2020/12/31 12:15:23;;;;;;;2.40;1.60;;;4.70;99.90;;;;;;5048757;28;20045;-68
2020/12/31 12:17:51;;;;;;;1.50;1.00;;;4.60;99.90;;;;;;5048172;28;20700;-68
2020/12/31 12:20:18;;;;;;;2.03;1.27;;;4.60;99.90;;;;;;5053906;28;20057;-68
2020/12/31 12:22:46;;;;;;;2.13;1.42;;;4.60;99.90;;;;;;5062901;28;20080;-68
2020/12/31 12:25:13;;;;;;;1.55;1.08;;;4.70;99.90;;;;;;5048932;28;20126;-67
2020/12/31 12:27:41;;;;;;;2.08;1.50;;;4.80;99.90;;;;;;5048811;28;20122;-67
2020/12/31 12:30:10;;;;;;;2.38;1.50;;;5.00;99.90;;;;;;5049305;28;20158;-67
2020/12/31 12:32:37;;;;;;;1.73;1.40;;;5.10;99.90;;;;;;5050162;28;20183;-67
2020/12/31 12:35:06;;;;;;;2.65;1.33;;;5.00;99.90;;;;;;5051079;28;20143;-67
2020/12/31 12:37:33;;;;;;;1.90;1.30;;;4.90;99.90;;;;;;5049636;28;20061;-67
2020/12/31 12:40:00;;;;;;;2.42;1.42;;;4.80;99.90;;;;;;5048379;28;20068;-67
2020/12/31 12:42:27;;;;;;;1.83;1.55;;;4.90;99.90;;;;;;5050725;28;20520;-67
2020/12/31 12:44:54;;;;;;;3.08;1.85;;;4.90;99.90;;;;;;5052271;28;20099;-67
2020/12/31 12:47:20;;;;;;;2.38;2.03;;;4.90;99.90;;;;;;5047513;28;20521;-67
2020/12/31 12:49:47;;;;;;;2.13;1.58;;;5.20;99.90;;;;;;5048315;28;20052;-67
2020/12/31 12:52:14;;;;;;;2.30;1.73;;;5.30;99.90;;;;;;5048044;28;20072;-67
2020/12/31 12:54:40;;;;;;;2.10;1.70;;;5.30;99.90;;;;;;5048761;28;20122;-68
2020/12/31 12:57:10;;;;;;;2.30;1.38;;;5.20;99.90;;;;;;5050441;28;20188;-67
2020/12/31 12:59:36;;;;;;;2.47;1.70;;;5.20;99.90;;;;;;5047295;28;20086;-67
2020/12/31 13:02:03;;;;;;;2.03;1.30;;;5.20;99.90;;;;;;5049552;28;20144;-68
2020/12/31 13:04:29;;;;;;;2.42;1.60;;;5.10;99.90;;;;;;5050042;28;20509;-68